createdAt,value
2023-04-16T00:00:42.882Z,1008.51
2023-04-16T00:01:43.109Z,1008.49
2023-04-16T00:02:43.381Z,1008.53
2023-04-16T00:03:43.775Z,1008.52
2023-04-16T00:04:43.849Z,1008.54
2023-04-16T00:05:43.914Z,1008.53
2023-04-16T00:06:44.106Z,1008.53
2023-04-16T00:07:44.316Z,1008.55
2023-04-16T00:08:44.534Z,1008.54
2023-04-16T00:09:44.696Z,1008.56
2023-04-16T00:10:44.998Z,1008.54
2023-04-16T00:11:45.198Z,1008.57
2023-04-16T00:12:45.378Z,1008.60
2023-04-16T00:13:45.559Z,1008.58
2023-04-16T00:14:45.772Z,1008.58
2023-04-16T00:15:45.958Z,1008.60
2023-04-16T00:16:46.315Z,1008.64
2023-04-16T00:17:46.493Z,1008.64
2023-04-16T00:18:46.692Z,1008.64
2023-04-16T00:19:46.855Z,1008.66
2023-04-16T00:20:47.158Z,1008.68
2023-04-16T00:21:47.355Z,1008.66
2023-04-16T00:22:47.601Z,1008.66
2023-04-16T00:23:47.819Z,1008.67
2023-04-16T00:24:48.000Z,1008.66
2023-04-16T00:25:48.221Z,1008.61
2023-04-16T00:26:48.406Z,1008.63
2023-04-16T00:27:48.589Z,1008.63
2023-04-16T00:28:48.808Z,1008.61
2023-04-16T00:29:48.973Z,1008.60
2023-04-16T00:30:49.211Z,1008.62
2023-04-16T00:31:49.377Z,1008.62
2023-04-16T00:32:49.614Z,1008.64
2023-04-16T00:33:49.768Z,1008.61
2023-04-16T00:34:49.970Z,1008.65
2023-04-16T00:35:50.176Z,1008.64
2023-04-16T00:36:50.366Z,1008.60
2023-04-16T00:37:50.565Z,1008.66
2023-04-16T00:38:50.853Z,1008.64
2023-04-16T00:39:51.090Z,1008.63
2023-04-16T00:40:51.258Z,1008.64
2023-04-16T00:41:51.444Z,1008.60
2023-04-16T00:42:51.785Z,1008.64
2023-04-16T00:43:51.973Z,1008.67
2023-04-16T00:44:52.151Z,1008.63
2023-04-16T00:45:52.388Z,1008.67
2023-04-16T00:46:52.569Z,1008.66
2023-04-16T00:47:52.870Z,1008.68
2023-04-16T00:48:52.966Z,1008.66
2023-04-16T00:49:53.149Z,1008.65
2023-04-16T00:50:53.350Z,1008.63
2023-04-16T00:51:53.547Z,1008.66
2023-04-16T00:52:53.744Z,1008.64
2023-04-16T00:53:53.950Z,1008.65
2023-04-16T00:54:55.172Z,1008.65
2023-04-16T00:55:54.380Z,1008.63
2023-04-16T00:56:54.602Z,1008.66
2023-04-16T00:57:54.768Z,1008.66
2023-04-16T00:58:54.936Z,1008.67
2023-04-16T00:59:55.234Z,1008.65
2023-04-16T01:00:55.434Z,1008.63
2023-04-16T01:01:55.719Z,1008.65
2023-04-16T01:02:55.986Z,1008.69
2023-04-16T01:03:56.117Z,1008.64
2023-04-16T01:04:56.211Z,1008.69
2023-04-16T01:05:56.509Z,1008.70
2023-04-16T01:06:56.686Z,1008.74
2023-04-16T01:07:56.896Z,1008.73
2023-04-16T01:08:57.072Z,1008.73
2023-04-16T01:09:57.270Z,1008.76
2023-04-16T01:10:57.447Z,1008.72
2023-04-16T01:11:57.645Z,1008.75
2023-04-16T01:12:57.847Z,1008.76
2023-04-16T01:13:58.017Z,1008.78
2023-04-16T01:14:58.228Z,1008.73
2023-04-16T01:15:58.581Z,1008.74
2023-04-16T01:16:58.745Z,1008.80
2023-04-16T01:17:58.983Z,1008.80
2023-04-16T01:18:59.154Z,1008.83
2023-04-16T01:19:59.348Z,1008.84
2023-04-16T01:20:59.525Z,1008.84
2023-04-16T01:21:59.929Z,1008.87
2023-04-16T01:23:00.034Z,1008.86
2023-04-16T01:24:00.224Z,1008.86
2023-04-16T01:25:00.462Z,1008.86
2023-04-16T01:26:00.629Z,1008.86
2023-04-16T01:27:00.866Z,1008.87
2023-04-16T01:28:01.117Z,1008.85
2023-04-16T01:29:01.290Z,1008.89
2023-04-16T01:30:01.532Z,1008.85
2023-04-16T01:31:01.787Z,1008.89
2023-04-16T01:32:01.995Z,1008.89
2023-04-16T01:33:02.293Z,1008.88
2023-04-16T01:34:02.444Z,1008.89
2023-04-16T01:35:02.626Z,1008.89
2023-04-16T01:36:03.011Z,1008.94
2023-04-16T01:37:03.191Z,1008.90
2023-04-16T01:38:03.398Z,1008.92
2023-04-16T01:39:03.576Z,1008.95
2023-04-16T01:40:03.906Z,1008.93
2023-04-16T01:41:04.144Z,1008.91
2023-04-16T01:42:04.346Z,1008.90
2023-04-16T01:43:04.553Z,1008.86
2023-04-16T01:44:04.747Z,1008.88
2023-04-16T01:45:04.921Z,1008.89
2023-04-16T01:46:05.264Z,1008.85
2023-04-16T01:47:05.484Z,1008.90
2023-04-16T01:48:05.740Z,1008.90
2023-04-16T01:49:05.853Z,1008.92
2023-04-16T01:50:06.048Z,1008.89
2023-04-16T01:51:06.218Z,1008.94
2023-04-16T01:52:06.617Z,1008.93
2023-04-16T01:53:06.772Z,1008.94
2023-04-16T01:54:06.972Z,1008.95
2023-04-16T01:55:07.165Z,1008.95
2023-04-16T01:56:07.397Z,1009.00
2023-04-16T01:57:07.614Z,1008.99
2023-04-16T01:58:07.842Z,1009.01
2023-04-16T01:59:08.321Z,1009.01
2023-04-16T02:00:08.280Z,1009.01
2023-04-16T02:01:08.476Z,1009.00
2023-04-16T02:02:08.881Z,1009.02
2023-04-16T02:03:09.163Z,1009.02
2023-04-16T02:04:09.455Z,1009.04
2023-04-16T02:05:09.541Z,1009.05
2023-04-16T02:06:09.784Z,1009.07
2023-04-16T02:07:09.963Z,1009.05
2023-04-16T02:08:10.177Z,1009.05
2023-04-16T02:09:10.525Z,1009.03
2023-04-16T02:10:10.573Z,1009.05
2023-04-16T02:11:10.768Z,1009.04
2023-04-16T02:12:10.960Z,1009.07
2023-04-16T02:13:11.481Z,1009.07
2023-04-16T02:14:11.335Z,1009.09
2023-04-16T02:15:11.501Z,1009.07
2023-04-16T02:16:11.714Z,1009.08
2023-04-16T02:17:11.868Z,1009.09
2023-04-16T02:18:12.199Z,1009.11
2023-04-16T02:19:12.807Z,1009.08
2023-04-16T02:20:12.612Z,1009.10
2023-04-16T02:21:13.625Z,1009.09
2023-04-16T02:22:13.047Z,1009.10
2023-04-16T02:23:13.242Z,1009.11
2023-04-16T02:24:13.428Z,1009.09
2023-04-16T02:25:13.616Z,1009.11
2023-04-16T02:26:13.790Z,1009.10
2023-04-16T02:27:14.087Z,1009.12
2023-04-16T02:28:14.368Z,1009.12
2023-04-16T02:29:14.549Z,1009.12
2023-04-16T02:30:14.785Z,1009.15
2023-04-16T02:31:14.946Z,1009.12
2023-04-16T02:32:15.144Z,1009.16
2023-04-16T02:33:15.373Z,1009.14
2023-04-16T02:34:15.543Z,1009.14
2023-04-16T02:35:15.723Z,1009.19
2023-04-16T02:36:15.939Z,1009.18
2023-04-16T02:37:16.140Z,1009.17
2023-04-16T02:38:16.387Z,1009.19
2023-04-16T02:39:16.522Z,1009.17
2023-04-16T02:40:16.852Z,1009.22
2023-04-16T02:41:17.038Z,1009.20
2023-04-16T02:42:17.300Z,1009.15
2023-04-16T02:43:17.510Z,1009.18
2023-04-16T02:44:17.681Z,1009.21
2023-04-16T02:45:17.866Z,1009.21
2023-04-16T02:46:18.232Z,1009.20
2023-04-16T02:47:18.289Z,1009.19
2023-04-16T02:48:18.483Z,1009.21
2023-04-16T02:49:18.685Z,1009.19
2023-04-16T02:50:18.853Z,1009.20
2023-04-16T02:51:19.033Z,1009.21
2023-04-16T02:52:19.231Z,1009.22
2023-04-16T02:53:19.425Z,1009.25
2023-04-16T02:54:19.607Z,1009.22
2023-04-16T02:55:19.854Z,1009.26
2023-04-16T02:56:20.041Z,1009.25
2023-04-16T02:57:20.195Z,1009.28
2023-04-16T02:58:20.510Z,1009.28
2023-04-16T02:59:20.670Z,1009.30
2023-04-16T03:00:20.963Z,1009.26
2023-04-16T03:01:21.162Z,1009.26
2023-04-16T03:02:21.371Z,1009.28
2023-04-16T03:03:21.604Z,1009.30
2023-04-16T03:04:21.840Z,1009.29
2023-04-16T03:05:22.023Z,1009.30
2023-04-16T03:06:22.297Z,1009.27
2023-04-16T03:07:22.587Z,1009.27
2023-04-16T03:08:22.888Z,1009.31
2023-04-16T03:09:23.062Z,1009.34
2023-04-16T03:10:23.268Z,1009.33
2023-04-16T03:11:23.429Z,1009.36
2023-04-16T03:12:23.736Z,1009.34
2023-04-16T03:13:23.896Z,1009.35
2023-04-16T03:14:24.181Z,1009.41
2023-04-16T03:15:24.439Z,1009.41
2023-04-16T03:16:24.730Z,1009.43
2023-04-16T03:17:24.956Z,1009.39
2023-04-16T03:18:25.089Z,1009.36
2023-04-16T03:19:25.266Z,1009.38
2023-04-16T03:20:25.472Z,1009.40
2023-04-16T03:21:25.657Z,1009.41
2023-04-16T03:22:25.930Z,1009.43
2023-04-16T03:23:26.099Z,1009.46
2023-04-16T03:24:26.464Z,1009.42
2023-04-16T03:25:26.613Z,1009.43
2023-04-16T03:26:26.924Z,1009.46
2023-04-16T03:27:27.105Z,1009.46
2023-04-16T03:28:27.496Z,1009.47
2023-04-16T03:29:27.664Z,1009.42
2023-04-16T03:30:27.844Z,1009.44
2023-04-16T03:31:28.058Z,1009.46
2023-04-16T03:32:28.347Z,1009.48
2023-04-16T03:33:28.426Z,1009.49
2023-04-16T03:34:28.635Z,1009.47
2023-04-16T03:35:28.862Z,1009.46
2023-04-16T03:36:29.157Z,1009.47
2023-04-16T03:37:29.296Z,1009.47
2023-04-16T03:38:29.515Z,1009.49
2023-04-16T03:39:29.777Z,1009.48
2023-04-16T03:40:30.021Z,1009.51
2023-04-16T03:41:30.277Z,1009.47
2023-04-16T03:42:30.496Z,1009.51
2023-04-16T03:43:30.745Z,1009.51
2023-04-16T03:44:30.998Z,1009.50
2023-04-16T03:45:31.273Z,1009.51
2023-04-16T03:46:31.609Z,1009.51
2023-04-16T03:47:31.805Z,1009.50
2023-04-16T03:48:31.925Z,1009.56
2023-04-16T03:49:32.166Z,1009.55
2023-04-16T03:50:32.389Z,1009.52
2023-04-16T03:51:32.575Z,1009.56
2023-04-16T03:52:32.891Z,1009.60
2023-04-16T03:53:33.070Z,1009.59
2023-04-16T03:54:33.257Z,1009.62
2023-04-16T03:55:33.445Z,1009.57
2023-04-16T03:56:33.629Z,1009.60
2023-04-16T03:57:33.800Z,1009.61
2023-04-16T03:58:34.117Z,1009.64
2023-04-16T03:59:34.291Z,1009.68
2023-04-16T04:00:34.486Z,1009.68
2023-04-16T04:01:34.722Z,1009.67
2023-04-16T04:02:35.072Z,1009.66
2023-04-16T04:03:35.275Z,1009.70
2023-04-16T04:04:35.482Z,1009.67
2023-04-16T04:05:35.588Z,1009.68
2023-04-16T04:06:35.913Z,1009.67
2023-04-16T04:07:36.119Z,1009.73
2023-04-16T04:08:36.456Z,1009.74
2023-04-16T04:09:36.652Z,1009.75
2023-04-16T04:10:36.958Z,1009.75
2023-04-16T04:11:37.139Z,1009.77
2023-04-16T04:12:37.456Z,1009.82
2023-04-16T04:13:37.674Z,1009.78
2023-04-16T04:14:37.853Z,1009.79
2023-04-16T04:15:38.067Z,1009.78
2023-04-16T04:16:38.365Z,1009.82
2023-04-16T04:17:38.690Z,1009.86
2023-04-16T04:18:38.797Z,1009.84
2023-04-16T04:19:44.509Z,1009.88
2023-04-16T04:20:40.287Z,1009.82
2023-04-16T04:21:39.479Z,1009.88
2023-04-16T04:22:39.686Z,1009.86
2023-04-16T04:23:39.888Z,1009.89
2023-04-16T04:24:40.127Z,1009.89
2023-04-16T04:25:40.338Z,1009.91
2023-04-16T04:26:40.586Z,1009.87
2023-04-16T04:27:40.783Z,1009.90
2023-04-16T04:28:40.999Z,1009.94
2023-04-16T04:29:41.195Z,1009.93
2023-04-16T04:30:41.411Z,1009.94
2023-04-16T04:31:41.667Z,1009.96
2023-04-16T04:32:41.853Z,1009.90
2023-04-16T04:33:42.036Z,1009.98
2023-04-16T04:34:42.239Z,1009.98
2023-04-16T04:35:42.453Z,1009.96
2023-04-16T04:36:42.668Z,1009.96
2023-04-16T04:37:42.906Z,1009.94
2023-04-16T04:38:43.123Z,1009.97
2023-04-16T04:39:43.315Z,1009.99
2023-04-16T04:40:43.522Z,1009.97
2023-04-16T04:41:43.713Z,1010.02
2023-04-16T04:42:43.927Z,1010.00
2023-04-16T04:43:44.182Z,1010.01
2023-04-16T04:44:44.348Z,1010.01
2023-04-16T04:45:44.598Z,1010.04
2023-04-16T04:46:44.781Z,1010.05
2023-04-16T04:47:45.026Z,1010.05
2023-04-16T04:48:45.220Z,1010.10
2023-04-16T04:49:45.434Z,1010.04
2023-04-16T04:50:45.632Z,1010.06
2023-04-16T04:51:45.852Z,1010.06
2023-04-16T04:52:54.051Z,1010.07
2023-04-16T04:53:46.267Z,1010.09
2023-04-16T04:54:46.538Z,1010.09
2023-04-16T04:55:46.714Z,1010.13
2023-04-16T04:56:46.949Z,1010.13
2023-04-16T04:57:47.131Z,1010.12
2023-04-16T04:58:47.373Z,1010.17
2023-04-16T04:59:47.549Z,1010.12
2023-04-16T05:00:47.895Z,1010.20
2023-04-16T05:01:48.084Z,1010.18
2023-04-16T05:02:48.371Z,1010.22
2023-04-16T05:03:48.558Z,1010.21
2023-04-16T05:04:48.731Z,1010.22
2023-04-16T05:05:48.913Z,1010.20
2023-04-16T05:06:49.135Z,1010.23
2023-04-16T05:07:49.353Z,1010.20
2023-04-16T05:08:49.561Z,1010.27
2023-04-16T05:09:49.798Z,1010.26
2023-04-16T05:10:49.981Z,1010.27
2023-04-16T05:11:50.183Z,1010.27
2023-04-16T05:12:50.390Z,1010.31
2023-04-16T05:13:50.595Z,1010.35
2023-04-16T05:14:50.821Z,1010.35
2023-04-16T05:15:51.021Z,1010.36
2023-04-16T05:16:51.267Z,1010.41
2023-04-16T05:17:51.565Z,1010.36
2023-04-16T05:18:51.789Z,1010.36
2023-04-16T05:19:51.998Z,1010.32
2023-04-16T05:20:52.183Z,1010.36
2023-04-16T05:21:52.386Z,1010.37
2023-04-16T05:22:52.590Z,1010.38
2023-04-16T05:23:52.809Z,1010.37
2023-04-16T05:24:53.036Z,1010.35
2023-04-16T05:25:53.235Z,1010.40
2023-04-16T05:26:53.454Z,1010.40
2023-04-16T05:27:53.653Z,1010.41
2023-04-16T05:28:53.864Z,1010.45
2023-04-16T05:29:54.080Z,1010.41
2023-04-16T05:30:54.331Z,1010.42
2023-04-16T05:31:54.493Z,1010.44
2023-04-16T05:32:54.760Z,1010.41
2023-04-16T05:33:55.019Z,1010.44
2023-04-16T05:34:55.226Z,1010.42
2023-04-16T05:35:55.434Z,1010.49
2023-04-16T05:36:55.648Z,1010.48
2023-04-16T05:37:55.838Z,1010.45
2023-04-16T05:38:56.121Z,1010.47
2023-04-16T05:39:56.335Z,1010.51
2023-04-16T05:40:56.538Z,1010.47
2023-04-16T05:41:56.748Z,1010.43
2023-04-16T05:42:56.963Z,1010.51
2023-04-16T05:43:57.382Z,1010.50
2023-04-16T05:44:57.505Z,1010.54
2023-04-16T05:45:57.777Z,1010.51
2023-04-16T05:46:57.965Z,1010.53
2023-04-16T05:47:58.225Z,1010.55
2023-04-16T05:48:58.410Z,1010.56
2023-04-16T05:49:58.609Z,1010.53
2023-04-16T05:50:58.821Z,1010.57
2023-04-16T05:51:59.016Z,1010.57
2023-04-16T05:52:59.235Z,1010.56
2023-04-16T05:53:59.440Z,1010.56
2023-04-16T05:54:59.703Z,1010.52
2023-04-16T05:55:59.896Z,1010.54
2023-04-16T05:57:00.131Z,1010.57
2023-04-16T05:58:00.322Z,1010.56
2023-04-16T05:59:00.524Z,1010.63
2023-04-16T06:00:00.758Z,1010.61
2023-04-16T06:01:01.016Z,1010.66
2023-04-16T06:02:01.230Z,1010.69
2023-04-16T06:03:01.562Z,1010.70
2023-04-16T06:04:01.788Z,1010.72
2023-04-16T06:05:01.965Z,1010.72
2023-04-16T06:06:02.085Z,1010.75
2023-04-16T06:07:02.327Z,1010.74
2023-04-16T06:08:02.526Z,1010.72
2023-04-16T06:09:02.736Z,1010.76
2023-04-16T06:10:02.962Z,1010.77
2023-04-16T06:11:03.140Z,1010.80
2023-04-16T06:12:03.351Z,1010.79
2023-04-16T06:13:03.521Z,1010.77
2023-04-16T06:14:03.728Z,1010.79
2023-04-16T06:15:03.907Z,1010.81
2023-04-16T06:16:04.125Z,1010.81
2023-04-16T06:17:04.310Z,1010.81
2023-04-16T06:18:04.563Z,1010.84
2023-04-16T06:19:04.750Z,1010.84
2023-04-16T06:20:04.966Z,1010.82
2023-04-16T06:21:05.168Z,1010.86
2023-04-16T06:22:05.376Z,1010.89
2023-04-16T06:23:05.564Z,1010.88
2023-04-16T06:24:05.773Z,1010.88
2023-04-16T06:25:05.976Z,1010.88
2023-04-16T06:26:06.175Z,1010.88
2023-04-16T06:27:06.377Z,1010.87
2023-04-16T06:28:06.592Z,1010.90
2023-04-16T06:29:06.877Z,1010.88
2023-04-16T06:30:07.050Z,1010.94
2023-04-16T06:31:07.264Z,1010.95
2023-04-16T06:32:07.448Z,1010.94
2023-04-16T06:33:07.661Z,1010.95
2023-04-16T06:34:07.877Z,1010.97
2023-04-16T06:35:08.087Z,1010.94
2023-04-16T06:36:08.403Z,1010.94
2023-04-16T06:37:10.673Z,1010.96
2023-04-16T06:38:08.864Z,1010.95
2023-04-16T06:39:09.668Z,1010.97
2023-04-16T06:40:09.342Z,1011.00
2023-04-16T06:41:09.556Z,1011.02
2023-04-16T06:42:09.717Z,1011.01
2023-04-16T06:43:10.872Z,1011.01
2023-04-16T06:44:10.172Z,1011.02
2023-04-16T06:45:10.360Z,1011.04
2023-04-16T06:46:10.562Z,1011.02
2023-04-16T06:47:10.777Z,1011.04
2023-04-16T06:48:11.033Z,1011.02
2023-04-16T06:49:11.555Z,1011.05
2023-04-16T06:50:11.491Z,1011.07
2023-04-16T06:51:11.674Z,1011.04
2023-04-16T06:52:11.986Z,1011.06
2023-04-16T06:53:12.182Z,1011.08
2023-04-16T06:54:12.377Z,1011.05
2023-04-16T06:55:12.564Z,1011.04
2023-04-16T06:56:12.762Z,1011.07
2023-04-16T06:57:12.924Z,1011.05
2023-04-16T06:58:13.235Z,1011.05
2023-04-16T06:59:13.438Z,1011.08
2023-04-16T07:00:13.624Z,1011.08
2023-04-16T07:01:13.841Z,1011.10
2023-04-16T07:02:14.070Z,1011.10
2023-04-16T07:03:14.394Z,1011.09
2023-04-16T07:04:14.575Z,1011.13
2023-04-16T07:05:14.714Z,1011.14
2023-04-16T07:06:15.013Z,1011.14
2023-04-16T07:07:15.201Z,1011.13
2023-04-16T07:08:15.382Z,1011.16
2023-04-16T07:09:15.616Z,1011.15
2023-04-16T07:10:15.799Z,1011.16
2023-04-16T07:11:15.993Z,1011.16
2023-04-16T07:12:16.299Z,1011.17
2023-04-16T07:13:16.476Z,1011.20
2023-04-16T07:14:16.700Z,1011.19
2023-04-16T07:15:16.873Z,1011.19
2023-04-16T07:16:17.201Z,1011.21
2023-04-16T07:17:17.365Z,1011.21
2023-04-16T07:18:18.779Z,1011.24
2023-04-16T07:19:17.728Z,1011.23
2023-04-16T07:20:17.913Z,1011.24
2023-04-16T07:21:18.091Z,1011.29
2023-04-16T07:22:18.382Z,1011.23
2023-04-16T07:23:18.558Z,1011.27
2023-04-16T07:24:18.908Z,1011.27
2023-04-16T07:25:19.070Z,1011.28
2023-04-16T07:26:19.404Z,1011.27
2023-04-16T07:27:19.580Z,1011.30
2023-04-16T07:28:19.856Z,1011.31
2023-04-16T07:29:20.148Z,1011.33
2023-04-16T07:30:20.320Z,1011.35
2023-04-16T07:31:20.626Z,1011.31
2023-04-16T07:32:21.000Z,1011.37
2023-04-16T07:33:21.044Z,1011.35
2023-04-16T07:34:21.251Z,1011.37
2023-04-16T07:35:21.430Z,1011.36
2023-04-16T07:36:21.624Z,1011.39
2023-04-16T07:37:21.794Z,1011.39
2023-04-16T07:38:22.133Z,1011.42
2023-04-16T07:39:22.336Z,1011.37
2023-04-16T07:40:22.576Z,1011.41
2023-04-16T07:41:22.740Z,1011.42
2023-04-16T07:42:22.953Z,1011.42
2023-04-16T07:43:23.132Z,1011.43
2023-04-16T07:44:23.440Z,1011.45
2023-04-16T07:45:23.635Z,1011.48
2023-04-16T07:46:25.010Z,1011.48
2023-04-16T07:47:24.111Z,1011.47
2023-04-16T07:48:24.377Z,1011.50
2023-04-16T07:49:24.577Z,1011.50
2023-04-16T07:50:24.850Z,1011.56
2023-04-16T07:51:25.116Z,1011.54
2023-04-16T07:52:25.341Z,1011.55
2023-04-16T07:53:25.545Z,1011.56
2023-04-16T07:54:27.340Z,1011.59
2023-04-16T07:55:25.981Z,1011.59
2023-04-16T07:56:26.264Z,1011.58
2023-04-16T07:57:26.447Z,1011.59
2023-04-16T07:58:26.742Z,1011.65
2023-04-16T07:59:27.322Z,1011.67
2023-04-16T08:00:27.160Z,1011.65
2023-04-16T08:01:27.349Z,1011.66
2023-04-16T08:02:27.728Z,1011.63
2023-04-16T08:03:28.015Z,1011.65
2023-04-16T08:04:28.246Z,1011.67
2023-04-16T08:05:28.288Z,1011.67
2023-04-16T08:06:28.419Z,1011.68
2023-04-16T08:07:28.602Z,1011.68
2023-04-16T08:08:28.896Z,1011.67
2023-04-16T08:09:29.119Z,1011.71
2023-04-16T08:10:29.312Z,1011.70
2023-04-16T08:11:29.473Z,1011.68
2023-04-16T08:12:29.775Z,1011.69
2023-04-16T08:13:32.324Z,1011.70
2023-04-16T08:14:30.206Z,1011.72
2023-04-16T08:15:30.370Z,1011.74
2023-04-16T08:16:30.696Z,1011.73
2023-04-16T08:17:30.893Z,1011.76
2023-04-16T08:18:31.169Z,1011.75
2023-04-16T08:19:31.374Z,1011.75
2023-04-16T08:20:31.555Z,1011.76
2023-04-16T08:21:31.720Z,1011.78
2023-04-16T08:22:32.018Z,1011.77
2023-04-16T08:23:32.196Z,1011.78
2023-04-16T08:24:32.397Z,1011.80
2023-04-16T08:25:32.575Z,1011.83
2023-04-16T08:26:32.787Z,1011.82
2023-04-16T08:27:32.969Z,1011.84
2023-04-16T08:28:33.155Z,1011.82
2023-04-16T08:29:33.353Z,1011.86
2023-04-16T08:30:33.549Z,1011.88
2023-04-16T08:31:33.819Z,1011.89
2023-04-16T08:32:34.022Z,1011.87
2023-04-16T08:33:34.218Z,1011.88
2023-04-16T08:34:34.413Z,1011.89
2023-04-16T08:35:34.582Z,1011.93
2023-04-16T08:36:34.879Z,1011.93
2023-04-16T08:37:35.095Z,1011.94
2023-04-16T08:38:35.295Z,1011.97
2023-04-16T08:39:35.475Z,1011.99
2023-04-16T08:40:35.676Z,1011.97
2023-04-16T08:41:35.861Z,1011.98
2023-04-16T08:42:36.065Z,1011.97
2023-04-16T08:43:36.243Z,1012.00
2023-04-16T08:44:36.558Z,1012.02
2023-04-16T08:45:36.736Z,1012.04
2023-04-16T08:46:36.959Z,1012.04
2023-04-16T08:47:37.194Z,1012.04
2023-04-16T08:48:37.399Z,1012.04
2023-04-16T08:49:37.576Z,1012.03
2023-04-16T08:50:37.760Z,1012.03
2023-04-16T08:51:37.947Z,1012.07
2023-04-16T08:52:38.148Z,1012.06
2023-04-16T08:53:38.361Z,1012.05
2023-04-16T08:54:38.560Z,1012.07
2023-04-16T08:55:38.757Z,1012.09
2023-04-16T08:56:39.482Z,1012.10
2023-04-16T08:57:39.095Z,1012.13
2023-04-16T08:58:39.442Z,1012.10
2023-04-16T08:59:39.618Z,1012.14
2023-04-16T09:00:39.815Z,1012.10
2023-04-16T09:01:40.030Z,1012.14
2023-04-16T09:02:40.576Z,1012.14
2023-04-16T09:03:40.421Z,1012.15
2023-04-16T09:04:40.771Z,1012.16
2023-04-16T09:05:40.872Z,1012.15
2023-04-16T09:06:41.180Z,1012.17
2023-04-16T09:07:41.386Z,1012.17
2023-04-16T09:08:41.568Z,1012.17
2023-04-16T09:09:41.766Z,1012.21
2023-04-16T09:10:41.942Z,1012.20
2023-04-16T09:11:42.127Z,1012.24
2023-04-16T09:12:42.344Z,1012.23
2023-04-16T09:13:42.490Z,1012.28
2023-04-16T09:14:42.847Z,1012.27
2023-04-16T09:15:43.019Z,1012.28
2023-04-16T09:16:43.320Z,1012.25
2023-04-16T09:17:43.445Z,1012.25
2023-04-16T09:18:43.640Z,1012.27
2023-04-16T09:19:44.814Z,1012.30
2023-04-16T09:20:44.117Z,1012.33
2023-04-16T09:21:44.309Z,1012.32
2023-04-16T09:22:44.493Z,1012.34
2023-04-16T09:23:44.689Z,1012.37
2023-04-16T09:24:44.891Z,1012.40
2023-04-16T09:25:45.070Z,1012.36
2023-04-16T09:26:45.250Z,1012.37
2023-04-16T09:27:45.435Z,1012.39
2023-04-16T09:28:45.618Z,1012.40
2023-04-16T09:29:45.930Z,1012.40
2023-04-16T09:30:46.117Z,1012.44
2023-04-16T09:31:46.351Z,1012.41
2023-04-16T09:32:46.493Z,1012.43
2023-04-16T09:33:46.791Z,1012.41
2023-04-16T09:34:46.984Z,1012.48
2023-04-16T09:35:47.176Z,1012.42
2023-04-16T09:36:47.357Z,1012.46
2023-04-16T09:37:47.525Z,1012.45
2023-04-16T09:38:47.696Z,1012.42
2023-04-16T09:39:48.007Z,1012.39
2023-04-16T09:40:48.237Z,1012.39
2023-04-16T09:41:48.420Z,1012.48
2023-04-16T09:42:48.603Z,1012.48
2023-04-16T09:43:48.776Z,1012.50
2023-04-16T09:44:49.146Z,1012.51
2023-04-16T09:45:49.355Z,1012.45
2023-04-16T09:46:49.560Z,1012.48
2023-04-16T09:47:49.765Z,1012.45
2023-04-16T09:48:49.964Z,1012.46
2023-04-16T09:49:50.170Z,1012.51
2023-04-16T09:50:50.390Z,1012.49
2023-04-16T09:51:50.587Z,1012.51
2023-04-16T09:52:50.761Z,1012.52
2023-04-16T09:53:51.054Z,1012.49
2023-04-16T09:54:51.245Z,1012.50
2023-04-16T09:55:51.404Z,1012.50
2023-04-16T09:56:51.596Z,1012.52
2023-04-16T09:57:51.785Z,1012.52
2023-04-16T09:58:51.970Z,1012.52
2023-04-16T09:59:52.180Z,1012.56
2023-04-16T10:00:52.434Z,1012.56
2023-04-16T10:01:52.803Z,1012.60
2023-04-16T10:02:52.900Z,1012.58
2023-04-16T10:03:53.256Z,1012.60
2023-04-16T10:04:53.524Z,1012.60
2023-04-16T10:05:53.525Z,1012.61
2023-04-16T10:06:53.718Z,1012.57
2023-04-16T10:07:53.896Z,1012.62
2023-04-16T10:08:54.076Z,1012.56
2023-04-16T10:09:54.372Z,1012.61
2023-04-16T10:10:54.541Z,1012.63
2023-04-16T10:11:54.744Z,1012.61
2023-04-16T10:12:54.919Z,1012.61
2023-04-16T10:13:55.091Z,1012.62
2023-04-16T10:14:55.284Z,1012.63
2023-04-16T10:15:55.449Z,1012.62
2023-04-16T10:16:55.688Z,1012.64
2023-04-16T10:17:55.948Z,1012.64
2023-04-16T10:18:56.135Z,1012.67
2023-04-16T10:19:56.338Z,1012.66
2023-04-16T10:20:56.545Z,1012.68
2023-04-16T10:21:56.733Z,1012.67
2023-04-16T10:22:56.924Z,1012.67
2023-04-16T10:23:57.100Z,1012.67
2023-04-16T10:24:57.306Z,1012.68
2023-04-16T10:25:57.769Z,1012.67
2023-04-16T10:26:57.696Z,1012.67
2023-04-16T10:27:57.868Z,1012.61
2023-04-16T10:28:58.026Z,1012.69
2023-04-16T10:29:58.353Z,1012.70
2023-04-16T10:30:58.537Z,1012.72
2023-04-16T10:31:58.678Z,1012.68
2023-04-16T10:33:00.461Z,1012.67
2023-04-16T10:33:59.115Z,1012.66
2023-04-16T10:34:59.292Z,1012.63
2023-04-16T10:36:06.991Z,1012.65
2023-04-16T10:37:00.738Z,1012.63
2023-04-16T10:37:59.882Z,1012.62
2023-04-16T10:39:00.044Z,1012.63
2023-04-16T10:40:00.269Z,1012.66
2023-04-16T10:41:00.407Z,1012.68
2023-04-16T10:42:00.582Z,1012.71
2023-04-16T10:43:00.763Z,1012.71
2023-04-16T10:44:00.985Z,1012.71
2023-04-16T10:45:01.182Z,1012.69
2023-04-16T10:46:01.339Z,1012.72
2023-04-16T10:47:01.486Z,1012.70
2023-04-16T10:48:01.811Z,1012.71
2023-04-16T10:49:01.973Z,1012.69
2023-04-16T10:50:02.158Z,1012.73
2023-04-16T10:51:02.304Z,1012.71
2023-04-16T10:52:02.601Z,1012.72
2023-04-16T10:53:10.141Z,1012.72
2023-04-16T10:54:02.962Z,1012.77
2023-04-16T10:55:03.154Z,1012.74
2023-04-16T10:56:03.352Z,1012.74
2023-04-16T10:57:04.475Z,1012.76
2023-04-16T10:58:03.754Z,1012.78
2023-04-16T10:59:04.906Z,1012.75
2023-04-16T11:00:04.218Z,1012.75
2023-04-16T11:01:04.354Z,1012.78
2023-04-16T11:02:04.732Z,1012.79
2023-04-16T11:03:04.896Z,1012.81
2023-04-16T11:04:05.142Z,1012.82
2023-04-16T11:05:05.240Z,1012.82
2023-04-16T11:06:05.403Z,1012.80
2023-04-16T11:07:05.569Z,1012.81
2023-04-16T11:08:05.749Z,1012.84
2023-04-16T11:09:05.908Z,1012.83
2023-04-16T11:10:06.118Z,1012.82
2023-04-16T11:11:06.280Z,1012.84
2023-04-16T11:12:06.455Z,1012.83
2023-04-16T11:13:06.624Z,1012.87
2023-04-16T11:14:06.818Z,1012.84
2023-04-16T11:15:07.071Z,1012.85
2023-04-16T11:16:07.329Z,1012.86
2023-04-16T11:17:07.382Z,1012.84
2023-04-16T11:18:07.686Z,1012.87
2023-04-16T11:19:07.945Z,1012.87
2023-04-16T11:20:13.592Z,1012.86
2023-04-16T11:21:09.301Z,1012.88
2023-04-16T11:22:08.501Z,1012.87
2023-04-16T11:23:08.665Z,1012.87
2023-04-16T11:24:08.850Z,1012.89
2023-04-16T11:25:09.045Z,1012.87
2023-04-16T11:26:09.217Z,1012.85
2023-04-16T11:27:09.409Z,1012.83
2023-04-16T11:28:09.578Z,1012.85
2023-04-16T11:29:09.918Z,1012.84
2023-04-16T11:30:10.027Z,1012.86
2023-04-16T11:31:10.203Z,1012.88
2023-04-16T11:32:10.466Z,1012.88
2023-04-16T11:33:10.645Z,1012.91
2023-04-16T11:34:10.862Z,1012.92
2023-04-16T11:35:11.015Z,1012.91
2023-04-16T11:36:11.190Z,1012.93
2023-04-16T11:37:11.350Z,1012.93
2023-04-16T11:38:11.781Z,1012.95
2023-04-16T11:39:12.065Z,1012.93
2023-04-16T11:40:12.049Z,1012.93
2023-04-16T11:41:12.197Z,1012.93
2023-04-16T11:42:12.408Z,1012.94
2023-04-16T11:43:12.541Z,1012.94
2023-04-16T11:44:12.694Z,1012.94
2023-04-16T11:45:12.876Z,1012.92
2023-04-16T11:46:24.491Z,1012.90
2023-04-16T11:47:14.313Z,1012.91
2023-04-16T11:48:13.512Z,1012.92
2023-04-16T11:49:13.913Z,1012.90
2023-04-16T11:50:13.891Z,1012.88
2023-04-16T11:51:13.999Z,1012.90
2023-04-16T11:52:14.182Z,1012.96
2023-04-16T11:53:14.352Z,1012.95
2023-04-16T11:54:14.492Z,1012.94
2023-04-16T11:55:14.669Z,1012.95
2023-04-16T11:56:14.840Z,1012.97
2023-04-16T11:57:15.000Z,1012.97
2023-04-16T11:58:15.150Z,1013.02
2023-04-16T11:59:15.809Z,1012.99
2023-04-16T12:00:15.545Z,1012.97
2023-04-16T12:01:15.710Z,1012.98
2023-04-16T12:02:15.935Z,1013.00
2023-04-16T12:03:16.444Z,1012.98
2023-04-16T12:04:16.544Z,1013.01
2023-04-16T12:05:16.525Z,1013.05
2023-04-16T12:06:16.654Z,1013.04
2023-04-16T12:07:16.816Z,1013.04
2023-04-16T12:08:16.986Z,1013.05